sensor_id;sensor_type;location;lat;lon;timestamp;temperature;humidity
7046;DHT22;3564;53.326;10.356;2022-09-27T00:01:37;14.60;99.90
7046;DHT22;3564;53.326;10.356;2022-09-27T00:04:02;14.70;99.90
7046;DHT22;3564;53.326;10.356;2022-09-27T00:06:30;14.70;99.90
7046;DHT22;3564;53.326;10.356;2022-09-27T00:08:56;14.70;99.90
7046;DHT22;3564;53.326;10.356;2022-09-27T00:11:28;14.60;99.90
7046;DHT22;3564;53.326;10.356;2022-09-27T00:13:55;14.60;99.90
7046;DHT22;3564;53.326;10.356;2022-09-27T00:16:23;14.60;99.90
7046;DHT22;3564;53.326;10.356;2022-09-27T00:18:49;14.60;99.90
7046;DHT22;3564;53.326;10.356;2022-09-27T00:21:15;14.60;99.90
7046;DHT22;3564;53.326;10.356;2022-09-27T00:23:41;14.60;99.90
7046;DHT22;3564;53.326;10.356;2022-09-27T00:26:09;14.60;99.90
7046;DHT22;3564;53.326;10.356;2022-09-27T00:28:35;14.60;99.90
7046;DHT22;3564;53.326;10.356;2022-09-27T00:31:00;14.60;99.90
7046;DHT22;3564;53.326;10.356;2022-09-27T00:33:27;14.60;99.90
7046;DHT22;3564;53.326;10.356;2022-09-27T00:35:52;14.60;99.90
7046;DHT22;3564;53.326;10.356;2022-09-27T00:38:18;14.60;99.90
7046;DHT22;3564;53.326;10.356;2022-09-27T00:40:44;14.60;99.90
7046;DHT22;3564;53.326;10.356;2022-09-27T00:43:18;14.60;99.90
7046;DHT22;3564;53.326;10.356;2022-09-27T00:45:54;14.60;99.90
7046;DHT22;3564;53.326;10.356;2022-09-27T00:48:24;14.70;99.90
7046;DHT22;3564;53.326;10.356;2022-09-27T00:50:55;14.70;99.90
7046;DHT22;3564;53.326;10.356;2022-09-27T00:53:34;14.60;99.90
7046;DHT22;3564;53.326;10.356;2022-09-27T00:56:05;14.60;99.90
7046;DHT22;3564;53.326;10.356;2022-09-27T00:58:40;14.60;99.90
7046;DHT22;3564;53.326;10.356;2022-09-27T01:01:08;14.60;99.90
7046;DHT22;3564;53.326;10.356;2022-09-27T01:04:01;14.60;99.90
7046;DHT22;3564;53.326;10.356;2022-09-27T01:06:28;14.60;99.90
7046;DHT22;3564;53.326;10.356;2022-09-27T01:08:53;14.60;99.90
7046;DHT22;3564;53.326;10.356;2022-09-27T01:14:07;14.60;99.90
7046;DHT22;3564;53.326;10.356;2022-09-27T01:19:21;14.60;99.90
7046;DHT22;3564;53.326;10.356;2022-09-27T01:21:59;14.60;99.90
7046;DHT22;3564;53.326;10.356;2022-09-27T01:24:52;14.60;99.90
7046;DHT22;3564;53.326;10.356;2022-09-27T01:30:17;14.60;99.90
7046;DHT22;3564;53.326;10.356;2022-09-27T01:38:21;14.60;99.90
7046;DHT22;3564;53.326;10.356;2022-09-27T01:40:55;14.60;99.90
7046;DHT22;3564;53.326;10.356;2022-09-27T01:43:33;14.60;99.90
7046;DHT22;3564;53.326;10.356;2022-09-27T01:46:09;14.60;99.90
7046;DHT22;3564;53.326;10.356;2022-09-27T01:48:41;14.60;99.90
7046;DHT22;3564;53.326;10.356;2022-09-27T01:51:17;14.60;99.90
7046;DHT22;3564;53.326;10.356;2022-09-27T01:53:52;14.60;99.90
7046;DHT22;3564;53.326;10.356;2022-09-27T01:56:47;14.60;99.90
7046;DHT22;3564;53.326;10.356;2022-09-27T01:59:19;14.60;99.90
7046;DHT22;3564;53.326;10.356;2022-09-27T02:01:49;14.60;99.90
7046;DHT22;3564;53.326;10.356;2022-09-27T02:04:21;14.60;99.90
7046;DHT22;3564;53.326;10.356;2022-09-27T02:06:53;14.60;99.90
7046;DHT22;3564;53.326;10.356;2022-09-27T02:09:38;14.60;99.90
7046;DHT22;3564;53.326;10.356;2022-09-27T02:12:10;14.60;99.90
7046;DHT22;3564;53.326;10.356;2022-09-27T02:14:52;14.60;99.90
7046;DHT22;3564;53.326;10.356;2022-09-27T02:17:29;14.60;99.90
7046;DHT22;3564;53.326;10.356;2022-09-27T02:20:17;14.60;99.90
7046;DHT22;3564;53.326;10.356;2022-09-27T02:22:51;14.60;99.90
7046;DHT22;3564;53.326;10.356;2022-09-27T02:25:29;14.60;99.90
7046;DHT22;3564;53.326;10.356;2022-09-27T02:30:48;14.50;99.90
7046;DHT22;3564;53.326;10.356;2022-09-27T02:33:14;14.50;99.90
7046;DHT22;3564;53.326;10.356;2022-09-27T02:35:39;14.50;99.90
7046;DHT22;3564;53.326;10.356;2022-09-27T02:38:06;14.50;99.90
7046;DHT22;3564;53.326;10.356;2022-09-27T02:40:34;14.50;99.90
7046;DHT22;3564;53.326;10.356;2022-09-27T02:43:03;14.50;99.90
7046;DHT22;3564;53.326;10.356;2022-09-27T02:45:41;14.60;99.90
7046;DHT22;3564;53.326;10.356;2022-09-27T02:48:25;14.60;99.90
7046;DHT22;3564;53.326;10.356;2022-09-27T02:58:57;14.60;99.90
7046;DHT22;3564;53.326;10.356;2022-09-27T03:01:38;14.60;99.90
7046;DHT22;3564;53.326;10.356;2022-09-27T03:04:34;14.60;99.90
7046;DHT22;3564;53.326;10.356;2022-09-27T03:07:02;14.60;99.90
7046;DHT22;3564;53.326;10.356;2022-09-27T03:09:41;14.60;99.90
7046;DHT22;3564;53.326;10.356;2022-09-27T03:12:07;14.60;99.90
7046;DHT22;3564;53.326;10.356;2022-09-27T03:14:33;14.50;99.90
7046;DHT22;3564;53.326;10.356;2022-09-27T03:16:58;14.50;99.90
7046;DHT22;3564;53.326;10.356;2022-09-27T03:19:24;14.60;99.90
7046;DHT22;3564;53.326;10.356;2022-09-27T03:21:49;14.60;99.90
7046;DHT22;3564;53.326;10.356;2022-09-27T03:24:15;14.60;99.90
7046;DHT22;3564;53.326;10.356;2022-09-27T03:26:40;14.60;99.90
7046;DHT22;3564;53.326;10.356;2022-09-27T03:29:06;14.60;99.90
7046;DHT22;3564;53.326;10.356;2022-09-27T03:31:31;14.60;99.90
7046;DHT22;3564;53.326;10.356;2022-09-27T03:33:57;14.50;99.90
7046;DHT22;3564;53.326;10.356;2022-09-27T03:36:23;14.50;99.90
7046;DHT22;3564;53.326;10.356;2022-09-27T03:38:48;14.60;99.90
7046;DHT22;3564;53.326;10.356;2022-09-27T03:41:14;14.60;99.90
7046;DHT22;3564;53.326;10.356;2022-09-27T03:43:40;14.50;99.90
7046;DHT22;3564;53.326;10.356;2022-09-27T03:46:05;14.60;99.90
7046;DHT22;3564;53.326;10.356;2022-09-27T03:48:31;14.60;99.90
7046;DHT22;3564;53.326;10.356;2022-09-27T03:50:57;14.60;99.90
7046;DHT22;3564;53.326;10.356;2022-09-27T03:53:22;14.60;99.90
7046;DHT22;3564;53.326;10.356;2022-09-27T03:55:48;14.60;99.90
7046;DHT22;3564;53.326;10.356;2022-09-27T03:58:14;14.60;99.90
7046;DHT22;3564;53.326;10.356;2022-09-27T04:00:39;14.60;99.90
7046;DHT22;3564;53.326;10.356;2022-09-27T04:03:06;14.60;99.90
7046;DHT22;3564;53.326;10.356;2022-09-27T04:05:31;14.60;99.90
7046;DHT22;3564;53.326;10.356;2022-09-27T04:07:57;14.60;99.90
7046;DHT22;3564;53.326;10.356;2022-09-27T04:10:24;14.60;99.90
7046;DHT22;3564;53.326;10.356;2022-09-27T04:12:49;14.50;99.90
7046;DHT22;3564;53.326;10.356;2022-09-27T04:15:15;14.50;99.90
7046;DHT22;3564;53.326;10.356;2022-09-27T04:17:41;14.50;99.90
7046;DHT22;3564;53.326;10.356;2022-09-27T04:20:09;14.50;99.90
7046;DHT22;3564;53.326;10.356;2022-09-27T04:22:38;14.50;99.90
7046;DHT22;3564;53.326;10.356;2022-09-27T04:25:06;14.50;99.90
7046;DHT22;3564;53.326;10.356;2022-09-27T04:27:31;14.60;99.90
7046;DHT22;3564;53.326;10.356;2022-09-27T04:29:57;14.50;99.90
7046;DHT22;3564;53.326;10.356;2022-09-27T04:32:23;14.50;99.90
7046;DHT22;3564;53.326;10.356;2022-09-27T04:34:49;14.50;99.90
7046;DHT22;3564;53.326;10.356;2022-09-27T04:37:33;14.50;99.90
7046;DHT22;3564;53.326;10.356;2022-09-27T04:39:58;14.50;99.90
7046;DHT22;3564;53.326;10.356;2022-09-27T04:42:24;14.50;99.90
7046;DHT22;3564;53.326;10.356;2022-09-27T04:44:50;14.50;99.90
7046;DHT22;3564;53.326;10.356;2022-09-27T04:47:16;14.50;99.90
7046;DHT22;3564;53.326;10.356;2022-09-27T04:49:43;14.50;99.90
7046;DHT22;3564;53.326;10.356;2022-09-27T04:52:09;14.50;99.90
7046;DHT22;3564;53.326;10.356;2022-09-27T04:54:34;14.50;99.90
7046;DHT22;3564;53.326;10.356;2022-09-27T04:57:00;14.50;99.90
7046;DHT22;3564;53.326;10.356;2022-09-27T04:59:25;14.50;99.90
7046;DHT22;3564;53.326;10.356;2022-09-27T05:01:52;14.50;99.90
7046;DHT22;3564;53.326;10.356;2022-09-27T05:04:17;14.50;99.90
7046;DHT22;3564;53.326;10.356;2022-09-27T05:06:43;14.40;99.90
7046;DHT22;3564;53.326;10.356;2022-09-27T05:09:08;14.50;99.90
7046;DHT22;3564;53.326;10.356;2022-09-27T05:11:34;14.50;99.90
7046;DHT22;3564;53.326;10.356;2022-09-27T05:14:03;14.60;99.90
7046;DHT22;3564;53.326;10.356;2022-09-27T05:16:29;14.60;99.90
7046;DHT22;3564;53.326;10.356;2022-09-27T05:18:54;14.60;99.90
7046;DHT22;3564;53.326;10.356;2022-09-27T05:21:21;14.60;99.90
7046;DHT22;3564;53.326;10.356;2022-09-27T05:23:47;14.50;99.90
7046;DHT22;3564;53.326;10.356;2022-09-27T05:26:12;14.50;99.90
7046;DHT22;3564;53.326;10.356;2022-09-27T05:28:39;14.60;99.90
7046;DHT22;3564;53.326;10.356;2022-09-27T05:31:09;14.60;99.90
7046;DHT22;3564;53.326;10.356;2022-09-27T05:33:37;14.40;99.90
7046;DHT22;3564;53.326;10.356;2022-09-27T05:36:02;14.40;99.90
7046;DHT22;3564;53.326;10.356;2022-09-27T05:38:28;14.40;99.90
7046;DHT22;3564;53.326;10.356;2022-09-27T05:40:54;14.40;99.90
7046;DHT22;3564;53.326;10.356;2022-09-27T05:43:20;14.40;99.90
7046;DHT22;3564;53.326;10.356;2022-09-27T05:45:46;14.30;99.90
7046;DHT22;3564;53.326;10.356;2022-09-27T05:48:12;14.30;99.90
7046;DHT22;3564;53.326;10.356;2022-09-27T05:50:39;14.30;99.90
7046;DHT22;3564;53.326;10.356;2022-09-27T05:53:05;14.20;99.90
7046;DHT22;3564;53.326;10.356;2022-09-27T05:55:31;14.10;99.90
7046;DHT22;3564;53.326;10.356;2022-09-27T05:57:59;14.10;99.90
7046;DHT22;3564;53.326;10.356;2022-09-27T06:00:26;14.10;99.90
7046;DHT22;3564;53.326;10.356;2022-09-27T06:03:00;14.00;99.90
7046;DHT22;3564;53.326;10.356;2022-09-27T06:05:28;14.00;99.90
7046;DHT22;3564;53.326;10.356;2022-09-27T06:07:59;14.00;99.90
7046;DHT22;3564;53.326;10.356;2022-09-27T06:10:25;14.10;99.90
7046;DHT22;3564;53.326;10.356;2022-09-27T06:12:51;14.10;99.90
7046;DHT22;3564;53.326;10.356;2022-09-27T06:15:17;14.10;99.90
7046;DHT22;3564;53.326;10.356;2022-09-27T06:17:42;14.00;99.90
7046;DHT22;3564;53.326;10.356;2022-09-27T06:20:08;13.90;99.90
7046;DHT22;3564;53.326;10.356;2022-09-27T06:22:34;13.90;99.90
7046;DHT22;3564;53.326;10.356;2022-09-27T06:25:01;13.90;99.90
7046;DHT22;3564;53.326;10.356;2022-09-27T06:27:30;13.80;99.90
7046;DHT22;3564;53.326;10.356;2022-09-27T06:29:55;13.70;99.90
7046;DHT22;3564;53.326;10.356;2022-09-27T06:32:21;13.80;99.90
7046;DHT22;3564;53.326;10.356;2022-09-27T06:34:46;13.70;99.90
7046;DHT22;3564;53.326;10.356;2022-09-27T06:37:12;13.60;99.90
7046;DHT22;3564;53.326;10.356;2022-09-27T06:39:38;13.70;99.90
7046;DHT22;3564;53.326;10.356;2022-09-27T06:42:03;13.70;99.90
7046;DHT22;3564;53.326;10.356;2022-09-27T06:44:29;13.70;99.90
7046;DHT22;3564;53.326;10.356;2022-09-27T06:46:54;13.80;99.90
7046;DHT22;3564;53.326;10.356;2022-09-27T06:49:21;13.80;99.90
7046;DHT22;3564;53.326;10.356;2022-09-27T06:51:47;13.80;99.90
7046;DHT22;3564;53.326;10.356;2022-09-27T06:54:13;13.80;99.90
7046;DHT22;3564;53.326;10.356;2022-09-27T06:56:39;13.80;99.90
7046;DHT22;3564;53.326;10.356;2022-09-27T06:59:05;13.80;99.90
7046;DHT22;3564;53.326;10.356;2022-09-27T07:01:49;13.80;99.90
7046;DHT22;3564;53.326;10.356;2022-09-27T07:04:17;13.80;99.90
7046;DHT22;3564;53.326;10.356;2022-09-27T07:06:43;13.80;99.90
7046;DHT22;3564;53.326;10.356;2022-09-27T07:09:08;13.90;99.90
7046;DHT22;3564;53.326;10.356;2022-09-27T07:11:34;13.90;99.90
7046;DHT22;3564;53.326;10.356;2022-09-27T07:14:01;14.00;99.90
7046;DHT22;3564;53.326;10.356;2022-09-27T07:16:29;14.00;99.90
7046;DHT22;3564;53.326;10.356;2022-09-27T07:18:56;14.00;99.90
7046;DHT22;3564;53.326;10.356;2022-09-27T07:21:25;14.00;99.90
7046;DHT22;3564;53.326;10.356;2022-09-27T07:23:51;13.90;99.90
7046;DHT22;3564;53.326;10.356;2022-09-27T07:26:16;13.90;99.90
7046;DHT22;3564;53.326;10.356;2022-09-27T07:28:42;13.90;99.90
7046;DHT22;3564;53.326;10.356;2022-09-27T07:31:10;13.90;99.90
7046;DHT22;3564;53.326;10.356;2022-09-27T07:33:37;13.90;99.90
7046;DHT22;3564;53.326;10.356;2022-09-27T07:36:06;13.90;99.90
7046;DHT22;3564;53.326;10.356;2022-09-27T07:38:32;14.10;99.90
7046;DHT22;3564;53.326;10.356;2022-09-27T07:41:03;14.10;99.90
7046;DHT22;3564;53.326;10.356;2022-09-27T07:43:29;14.10;99.90
7046;DHT22;3564;53.326;10.356;2022-09-27T07:45:57;14.00;99.90
7046;DHT22;3564;53.326;10.356;2022-09-27T07:48:22;14.00;99.90
7046;DHT22;3564;53.326;10.356;2022-09-27T07:50:48;14.10;99.90
7046;DHT22;3564;53.326;10.356;2022-09-27T07:53:13;14.00;99.90
7046;DHT22;3564;53.326;10.356;2022-09-27T07:55:40;14.10;99.90
7046;DHT22;3564;53.326;10.356;2022-09-27T07:58:09;14.10;99.90
7046;DHT22;3564;53.326;10.356;2022-09-27T08:00:38;14.20;99.90
7046;DHT22;3564;53.326;10.356;2022-09-27T08:03:10;14.10;99.90
7046;DHT22;3564;53.326;10.356;2022-09-27T08:05:38;14.10;99.90
7046;DHT22;3564;53.326;10.356;2022-09-27T08:08:04;14.20;99.90
7046;DHT22;3564;53.326;10.356;2022-09-27T08:10:31;14.20;99.90
7046;DHT22;3564;53.326;10.356;2022-09-27T08:12:58;14.20;99.90
7046;DHT22;3564;53.326;10.356;2022-09-27T08:15:25;14.20;99.90
7046;DHT22;3564;53.326;10.356;2022-09-27T08:17:53;14.20;99.90
7046;DHT22;3564;53.326;10.356;2022-09-27T08:20:18;14.20;99.90
7046;DHT22;3564;53.326;10.356;2022-09-27T08:22:45;14.10;99.90
7046;DHT22;3564;53.326;10.356;2022-09-27T08:25:10;14.00;99.90
7046;DHT22;3564;53.326;10.356;2022-09-27T08:27:36;14.00;99.90
7046;DHT22;3564;53.326;10.356;2022-09-27T08:30:03;14.00;99.90
7046;DHT22;3564;53.326;10.356;2022-09-27T08:32:29;14.10;99.90
7046;DHT22;3564;53.326;10.356;2022-09-27T08:34:56;14.20;99.90
7046;DHT22;3564;53.326;10.356;2022-09-27T08:37:22;14.20;99.90
7046;DHT22;3564;53.326;10.356;2022-09-27T08:39:48;14.30;99.90
7046;DHT22;3564;53.326;10.356;2022-09-27T08:45:54;14.20;99.90
7046;DHT22;3564;53.326;10.356;2022-09-27T08:48:24;14.30;99.90
7046;DHT22;3564;53.326;10.356;2022-09-27T08:50:52;14.30;99.90
7046;DHT22;3564;53.326;10.356;2022-09-27T08:53:25;14.30;99.90
7046;DHT22;3564;53.326;10.356;2022-09-27T08:55:54;14.40;99.90
7046;DHT22;3564;53.326;10.356;2022-09-27T08:58:26;14.50;99.90
7046;DHT22;3564;53.326;10.356;2022-09-27T09:01:13;14.60;99.90
7046;DHT22;3564;53.326;10.356;2022-09-27T09:03:45;14.60;99.90
7046;DHT22;3564;53.326;10.356;2022-09-27T09:06:24;14.60;99.90
7046;DHT22;3564;53.326;10.356;2022-09-27T09:18:12;14.70;99.90
7046;DHT22;3564;53.326;10.356;2022-09-27T09:36:58;14.40;99.90
7046;DHT22;3564;53.326;10.356;2022-09-27T09:39:39;14.30;99.90
7046;DHT22;3564;53.326;10.356;2022-09-27T09:45:18;14.30;99.90
7046;DHT22;3564;53.326;10.356;2022-09-27T09:47:59;14.30;99.90
7046;DHT22;3564;53.326;10.356;2022-09-27T09:50:41;14.40;99.90
7046;DHT22;3564;53.326;10.356;2022-09-27T09:53:21;14.40;99.90
7046;DHT22;3564;53.326;10.356;2022-09-27T09:56:01;14.40;99.90
7046;DHT22;3564;53.326;10.356;2022-09-27T09:58:43;14.30;99.90
7046;DHT22;3564;53.326;10.356;2022-09-27T10:01:37;14.30;99.90
7046;DHT22;3564;53.326;10.356;2022-09-27T10:04:04;14.40;99.90
7046;DHT22;3564;53.326;10.356;2022-09-27T10:06:30;14.50;99.90
7046;DHT22;3564;53.326;10.356;2022-09-27T10:08:56;14.50;99.90
7046;DHT22;3564;53.326;10.356;2022-09-27T10:11:42;14.60;99.90
7046;DHT22;3564;53.326;10.356;2022-09-27T10:14:14;14.50;99.90
7046;DHT22;3564;53.326;10.356;2022-09-27T10:16:44;14.50;99.90
7046;DHT22;3564;53.326;10.356;2022-09-27T10:19:14;14.60;99.90
7046;DHT22;3564;53.326;10.356;2022-09-27T10:21:42;14.60;99.90
7046;DHT22;3564;53.326;10.356;2022-09-27T10:24:17;14.60;99.90
7046;DHT22;3564;53.326;10.356;2022-09-27T10:26:45;14.70;99.90
7046;DHT22;3564;53.326;10.356;2022-09-27T10:31:49;14.90;99.90
7046;DHT22;3564;53.326;10.356;2022-09-27T10:34:30;15.00;99.90
7046;DHT22;3564;53.326;10.356;2022-09-27T10:37:15;15.00;99.90
7046;DHT22;3564;53.326;10.356;2022-09-27T10:39:46;15.10;99.90
7046;DHT22;3564;53.326;10.356;2022-09-27T10:45:31;15.40;99.90
7046;DHT22;3564;53.326;10.356;2022-09-27T10:47:58;15.40;99.90
7046;DHT22;3564;53.326;10.356;2022-09-27T10:50:29;15.40;99.90
7046;DHT22;3564;53.326;10.356;2022-09-27T10:53:25;15.40;99.90
7046;DHT22;3564;53.326;10.356;2022-09-27T10:55:52;15.50;99.90
7046;DHT22;3564;53.326;10.356;2022-09-27T10:58:32;15.60;99.90
7046;DHT22;3564;53.326;10.356;2022-09-27T11:03:47;15.60;99.90
7046;DHT22;3564;53.326;10.356;2022-09-27T11:06:25;15.60;99.90
7046;DHT22;3564;53.326;10.356;2022-09-27T11:09:16;15.40;99.90
7046;DHT22;3564;53.326;10.356;2022-09-27T11:11:43;15.50;99.90
7046;DHT22;3564;53.326;10.356;2022-09-27T11:38:24;15.30;99.90
7046;DHT22;3564;53.326;10.356;2022-09-27T12:06:06;15.20;99.90
7046;DHT22;3564;53.326;10.356;2022-09-27T12:09:00;15.20;99.90
7046;DHT22;3564;53.326;10.356;2022-09-27T12:11:49;15.10;99.90
7046;DHT22;3564;53.326;10.356;2022-09-27T12:14:38;15.10;99.90
7046;DHT22;3564;53.326;10.356;2022-09-27T12:17:20;15.20;99.90
7046;DHT22;3564;53.326;10.356;2022-09-27T12:19:49;15.20;99.90
7046;DHT22;3564;53.326;10.356;2022-09-27T12:22:21;15.10;99.90
7046;DHT22;3564;53.326;10.356;2022-09-27T12:24:49;15.00;99.90
7046;DHT22;3564;53.326;10.356;2022-09-27T12:27:26;14.90;99.90
7046;DHT22;3564;53.326;10.356;2022-09-27T12:29:55;15.00;99.90
7046;DHT22;3564;53.326;10.356;2022-09-27T12:32:26;14.90;99.90
7046;DHT22;3564;53.326;10.356;2022-09-27T12:37:27;15.00;99.90
7046;DHT22;3564;53.326;10.356;2022-09-27T12:40:02;15.00;99.90
7046;DHT22;3564;53.326;10.356;2022-09-27T12:42:40;15.10;99.90
7046;DHT22;3564;53.326;10.356;2022-09-27T12:45:11;15.00;99.90
7046;DHT22;3564;53.326;10.356;2022-09-27T12:53:20;15.20;99.90
7046;DHT22;3564;53.326;10.356;2022-09-27T12:59:05;15.20;99.90
7046;DHT22;3564;53.326;10.356;2022-09-27T13:01:46;15.10;99.90
7046;DHT22;3564;53.326;10.356;2022-09-27T13:04:24;15.10;99.90
7046;DHT22;3564;53.326;10.356;2022-09-27T13:10:46;15.00;99.90
7046;DHT22;3564;53.326;10.356;2022-09-27T13:12:50;15.00;99.90
7046;DHT22;3564;53.326;10.356;2022-09-27T13:15:33;15.00;99.90
7046;DHT22;3564;53.326;10.356;2022-09-27T13:18:00;15.00;99.90
7046;DHT22;3564;53.326;10.356;2022-09-27T13:23:02;14.90;99.90
7046;DHT22;3564;53.326;10.356;2022-09-27T13:38:56;14.70;99.90
7046;DHT22;3564;53.326;10.356;2022-09-27T13:47:29;14.50;99.90
7046;DHT22;3564;53.326;10.356;2022-09-27T13:50:25;14.50;99.90
7046;DHT22;3564;53.326;10.356;2022-09-27T13:53:19;14.50;99.90
7046;DHT22;3564;53.326;10.356;2022-09-27T13:55:49;14.50;99.90
7046;DHT22;3564;53.326;10.356;2022-09-27T14:00:49;14.60;99.90
7046;DHT22;3564;53.326;10.356;2022-09-27T14:03:31;14.60;99.90
7046;DHT22;3564;53.326;10.356;2022-09-27T14:06:02;14.50;99.90
7046;DHT22;3564;53.326;10.356;2022-09-27T14:08:42;14.50;99.90
7046;DHT22;3564;53.326;10.356;2022-09-27T14:11:12;14.50;99.90
7046;DHT22;3564;53.326;10.356;2022-09-27T14:13:40;14.50;99.90
7046;DHT22;3564;53.326;10.356;2022-09-27T14:16:07;14.60;99.90
7046;DHT22;3564;53.326;10.356;2022-09-27T14:18:47;14.70;99.90
7046;DHT22;3564;53.326;10.356;2022-09-27T14:23:49;14.90;99.90
7046;DHT22;3564;53.326;10.356;2022-09-27T14:26:26;14.80;99.90
7046;DHT22;3564;53.326;10.356;2022-09-27T14:28:53;14.80;99.90
7046;DHT22;3564;53.326;10.356;2022-09-27T14:31:23;14.80;99.90
7046;DHT22;3564;53.326;10.356;2022-09-27T14:33:50;14.70;99.90
7046;DHT22;3564;53.326;10.356;2022-09-27T14:36:31;14.60;99.90
7046;DHT22;3564;53.326;10.356;2022-09-27T14:41:47;14.40;99.90
7046;DHT22;3564;53.326;10.356;2022-09-27T14:44:18;14.40;99.90
7046;DHT22;3564;53.326;10.356;2022-09-27T14:46:44;14.40;99.90
7046;DHT22;3564;53.326;10.356;2022-09-27T14:49:21;14.30;99.90
7046;DHT22;3564;53.326;10.356;2022-09-27T14:52:15;14.40;99.90
7046;DHT22;3564;53.326;10.356;2022-09-27T14:54:41;14.40;99.90
7046;DHT22;3564;53.326;10.356;2022-09-27T14:57:10;14.30;99.90
7046;DHT22;3564;53.326;10.356;2022-09-27T14:59:40;14.30;99.90
7046;DHT22;3564;53.326;10.356;2022-09-27T15:02:16;14.30;99.90
7046;DHT22;3564;53.326;10.356;2022-09-27T15:04:45;14.30;99.90
7046;DHT22;3564;53.326;10.356;2022-09-27T15:07:12;14.30;99.90
7046;DHT22;3564;53.326;10.356;2022-09-27T15:09:40;14.40;99.90
7046;DHT22;3564;53.326;10.356;2022-09-27T15:12:09;14.40;99.90
7046;DHT22;3564;53.326;10.356;2022-09-27T15:14:36;14.50;99.90
7046;DHT22;3564;53.326;10.356;2022-09-27T15:17:18;14.50;99.90
7046;DHT22;3564;53.326;10.356;2022-09-27T15:20:16;14.50;99.90
7046;DHT22;3564;53.326;10.356;2022-09-27T15:22:43;14.50;99.90
7046;DHT22;3564;53.326;10.356;2022-09-27T15:28:11;14.60;99.90
7046;DHT22;3564;53.326;10.356;2022-09-27T15:30:47;14.60;99.90
7046;DHT22;3564;53.326;10.356;2022-09-27T15:33:19;14.50;99.90
7046;DHT22;3564;53.326;10.356;2022-09-27T15:35:54;14.40;99.90
7046;DHT22;3564;53.326;10.356;2022-09-27T15:38:30;14.50;99.90
7046;DHT22;3564;53.326;10.356;2022-09-27T15:40:58;14.40;99.90
7046;DHT22;3564;53.326;10.356;2022-09-27T15:43:42;14.40;99.90
7046;DHT22;3564;53.326;10.356;2022-09-27T15:46:36;14.40;99.90
7046;DHT22;3564;53.326;10.356;2022-09-27T15:49:30;14.40;99.90
7046;DHT22;3564;53.326;10.356;2022-09-27T15:51:59;14.20;99.90
7046;DHT22;3564;53.326;10.356;2022-09-27T15:54:27;14.20;99.90
7046;DHT22;3564;53.326;10.356;2022-09-27T15:56:56;14.10;99.90
7046;DHT22;3564;53.326;10.356;2022-09-27T15:59:26;14.10;99.90
7046;DHT22;3564;53.326;10.356;2022-09-27T16:01:55;14.10;99.90
7046;DHT22;3564;53.326;10.356;2022-09-27T16:04:21;14.20;99.90
7046;DHT22;3564;53.326;10.356;2022-09-27T16:06:47;14.20;99.90
7046;DHT22;3564;53.326;10.356;2022-09-27T16:09:14;14.20;99.90
7046;DHT22;3564;53.326;10.356;2022-09-27T16:11:42;14.20;99.90
7046;DHT22;3564;53.326;10.356;2022-09-27T16:14:08;14.10;99.90
7046;DHT22;3564;53.326;10.356;2022-09-27T16:16:33;14.20;99.90
7046;DHT22;3564;53.326;10.356;2022-09-27T16:18:59;14.30;99.90
7046;DHT22;3564;53.326;10.356;2022-09-27T16:21:24;14.20;99.90
7046;DHT22;3564;53.326;10.356;2022-09-27T16:23:50;14.30;99.90
7046;DHT22;3564;53.326;10.356;2022-09-27T16:26:15;14.30;99.90
7046;DHT22;3564;53.326;10.356;2022-09-27T16:28:41;14.20;99.90
7046;DHT22;3564;53.326;10.356;2022-09-27T16:31:10;14.20;99.90
7046;DHT22;3564;53.326;10.356;2022-09-27T16:33:37;14.20;99.90
7046;DHT22;3564;53.326;10.356;2022-09-27T16:36:07;14.20;99.90
7046;DHT22;3564;53.326;10.356;2022-09-27T16:38:43;14.20;99.90
7046;DHT22;3564;53.326;10.356;2022-09-27T16:41:08;14.20;99.90
7046;DHT22;3564;53.326;10.356;2022-09-27T16:43:34;14.10;99.90
7046;DHT22;3564;53.326;10.356;2022-09-27T16:46:04;14.20;99.90
7046;DHT22;3564;53.326;10.356;2022-09-27T16:48:32;14.10;99.90
7046;DHT22;3564;53.326;10.356;2022-09-27T16:51:12;14.20;99.90
7046;DHT22;3564;53.326;10.356;2022-09-27T16:53:57;14.20;99.90
7046;DHT22;3564;53.326;10.356;2022-09-27T16:56:22;14.20;99.90
7046;DHT22;3564;53.326;10.356;2022-09-27T16:58:48;14.20;99.90
7046;DHT22;3564;53.326;10.356;2022-09-27T17:01:14;14.20;99.90
7046;DHT22;3564;53.326;10.356;2022-09-27T17:03:50;14.20;99.90
7046;DHT22;3564;53.326;10.356;2022-09-27T17:06:18;14.10;99.90
7046;DHT22;3564;53.326;10.356;2022-09-27T17:08:45;14.10;99.90
7046;DHT22;3564;53.326;10.356;2022-09-27T17:11:15;14.10;99.90
7046;DHT22;3564;53.326;10.356;2022-09-27T17:13:42;14.20;99.90
7046;DHT22;3564;53.326;10.356;2022-09-27T17:16:09;14.20;99.90
7046;DHT22;3564;53.326;10.356;2022-09-27T17:18:39;14.30;99.90
7046;DHT22;3564;53.326;10.356;2022-09-27T17:21:06;14.30;99.90
7046;DHT22;3564;53.326;10.356;2022-09-27T17:23:34;14.30;99.90
7046;DHT22;3564;53.326;10.356;2022-09-27T17:26:09;14.30;99.90
7046;DHT22;3564;53.326;10.356;2022-09-27T17:28:37;14.40;99.90
7046;DHT22;3564;53.326;10.356;2022-09-27T17:31:08;14.40;99.90
7046;DHT22;3564;53.326;10.356;2022-09-27T17:33:38;14.30;99.90
7046;DHT22;3564;53.326;10.356;2022-09-27T17:36:07;14.30;99.90
7046;DHT22;3564;53.326;10.356;2022-09-27T17:38:33;14.30;99.90
7046;DHT22;3564;53.326;10.356;2022-09-27T17:41:02;14.20;99.90
7046;DHT22;3564;53.326;10.356;2022-09-27T17:43:28;14.10;99.90
7046;DHT22;3564;53.326;10.356;2022-09-27T17:46:18;14.00;99.90
7046;DHT22;3564;53.326;10.356;2022-09-27T17:48:44;13.90;99.90
7046;DHT22;3564;53.326;10.356;2022-09-27T17:51:30;13.90;99.90
7046;DHT22;3564;53.326;10.356;2022-09-27T17:53:56;13.80;99.90
7046;DHT22;3564;53.326;10.356;2022-09-27T17:56:22;13.80;99.90
7046;DHT22;3564;53.326;10.356;2022-09-27T17:58:49;13.80;99.90
7046;DHT22;3564;53.326;10.356;2022-09-27T18:01:17;13.70;99.90
7046;DHT22;3564;53.326;10.356;2022-09-27T18:03:43;13.70;99.90
7046;DHT22;3564;53.326;10.356;2022-09-27T18:06:11;13.80;99.90
7046;DHT22;3564;53.326;10.356;2022-09-27T18:08:37;13.70;99.90
7046;DHT22;3564;53.326;10.356;2022-09-27T18:11:12;13.70;99.90
7046;DHT22;3564;53.326;10.356;2022-09-27T18:13:39;13.80;99.90
7046;DHT22;3564;53.326;10.356;2022-09-27T18:16:10;13.80;99.90
7046;DHT22;3564;53.326;10.356;2022-09-27T18:18:37;13.70;99.90
7046;DHT22;3564;53.326;10.356;2022-09-27T18:21:09;13.70;99.90
7046;DHT22;3564;53.326;10.356;2022-09-27T18:23:36;13.70;99.90
7046;DHT22;3564;53.326;10.356;2022-09-27T18:26:02;13.60;99.90
7046;DHT22;3564;53.326;10.356;2022-09-27T18:28:33;13.60;99.90
7046;DHT22;3564;53.326;10.356;2022-09-27T18:31:19;13.60;99.90
7046;DHT22;3564;53.326;10.356;2022-09-27T18:33:45;13.60;99.90
7046;DHT22;3564;53.326;10.356;2022-09-27T18:36:20;13.70;99.90
7046;DHT22;3564;53.326;10.356;2022-09-27T18:38:52;13.60;99.90
7046;DHT22;3564;53.326;10.356;2022-09-27T18:41:19;13.50;99.90
7046;DHT22;3564;53.326;10.356;2022-09-27T18:43:45;13.40;99.90
7046;DHT22;3564;53.326;10.356;2022-09-27T18:46:18;13.40;99.90
7046;DHT22;3564;53.326;10.356;2022-09-27T18:48:44;13.40;99.90